Decoded Metar for YCFS ( in ) (IATA:) | Meteo·Mobile Aviation Weather
aviador You're here:

YCFS Decoded Metar

in
Report Time2018-10-23 12:30:00
UTC Time2018-10-23 12:46:22
Flight Rules vfr VFR
Wind360° at 09 kt
W.Decomp.*RWY 03: 7.8 kt HW 4.5 kt LCW
RWY 28: 1.6 kt HW 8.9 kt RCW
Visibility9999 m
Phenomena:N/A
Clouds:Scattered 100 Hf
Expected CloudBase > 1,200 ft AGL from Temp-Dew spread
CeilingNone
Temp21°C
Dew Point18°C (83% RH)
AAT20.6°C
QNH1016 hPa
Raw Report
METAR YCFS 231230Z AUTO 36009KT 9999 // SCT100 21/18 Q1016
RF00.0/000.0=

Extra information for YCFS:More info

Social comments